sensor_id;sensor_type;location;lat;lon;timestamp;temperature;humidity
20174;DHT22;10246;50.620;7.232;2022-07-29T00:00:07;19.80;1.00
20174;DHT22;10246;50.620;7.232;2022-07-29T00:02:34;19.80;1.00
20174;DHT22;10246;50.620;7.232;2022-07-29T00:05:02;19.80;1.00
20174;DHT22;10246;50.620;7.232;2022-07-29T00:07:28;19.60;1.00
20174;DHT22;10246;50.620;7.232;2022-07-29T00:09:55;19.50;1.00
20174;DHT22;10246;50.620;7.232;2022-07-29T00:12:24;19.30;1.00
20174;DHT22;10246;50.620;7.232;2022-07-29T00:14:51;19.30;1.00
20174;DHT22;10246;50.620;7.232;2022-07-29T00:17:18;19.20;1.00
20174;DHT22;10246;50.620;7.232;2022-07-29T00:19:45;19.30;1.00
20174;DHT22;10246;50.620;7.232;2022-07-29T00:22:12;19.40;1.00
20174;DHT22;10246;50.620;7.232;2022-07-29T00:24:38;19.50;1.00
20174;DHT22;10246;50.620;7.232;2022-07-29T00:27:05;19.60;1.00
20174;DHT22;10246;50.620;7.232;2022-07-29T00:29:33;19.60;1.00
20174;DHT22;10246;50.620;7.232;2022-07-29T00:32:00;19.50;1.00
20174;DHT22;10246;50.620;7.232;2022-07-29T00:34:27;19.50;1.00
20174;DHT22;10246;50.620;7.232;2022-07-29T00:37:07;19.50;1.00
20174;DHT22;10246;50.620;7.232;2022-07-29T00:39:34;19.50;1.00
20174;DHT22;10246;50.620;7.232;2022-07-29T00:42:03;19.40;1.00
20174;DHT22;10246;50.620;7.232;2022-07-29T00:44:29;19.40;1.00
20174;DHT22;10246;50.620;7.232;2022-07-29T00:46:58;19.30;1.00
20174;DHT22;10246;50.620;7.232;2022-07-29T00:49:24;19.40;1.00
20174;DHT22;10246;50.620;7.232;2022-07-29T00:51:51;19.40;1.00
20174;DHT22;10246;50.620;7.232;2022-07-29T00:54:18;19.30;1.00
20174;DHT22;10246;50.620;7.232;2022-07-29T00:56:45;19.40;1.00
20174;DHT22;10246;50.620;7.232;2022-07-29T00:59:11;19.40;1.00
20174;DHT22;10246;50.620;7.232;2022-07-29T01:01:38;19.20;1.00
20174;DHT22;10246;50.620;7.232;2022-07-29T01:04:07;19.10;1.00
20174;DHT22;10246;50.620;7.232;2022-07-29T01:06:34;19.10;1.00
20174;DHT22;10246;50.620;7.232;2022-07-29T01:09:01;19.10;1.00
20174;DHT22;10246;50.620;7.232;2022-07-29T01:11:28;19.10;1.00
20174;DHT22;10246;50.620;7.232;2022-07-29T01:13:55;19.10;1.00
20174;DHT22;10246;50.620;7.232;2022-07-29T01:16:25;19.00;1.00
20174;DHT22;10246;50.620;7.232;2022-07-29T01:19:00;19.00;1.00
20174;DHT22;10246;50.620;7.232;2022-07-29T01:21:46;19.10;1.00
20174;DHT22;10246;50.620;7.232;2022-07-29T01:24:30;19.10;1.00
20174;DHT22;10246;50.620;7.232;2022-07-29T01:27:06;19.10;1.00
20174;DHT22;10246;50.620;7.232;2022-07-29T01:29:46;19.00;1.00
20174;DHT22;10246;50.620;7.232;2022-07-29T01:32:19;18.90;1.00
20174;DHT22;10246;50.620;7.232;2022-07-29T01:34:50;18.90;1.00
20174;DHT22;10246;50.620;7.232;2022-07-29T01:37:21;19.00;1.00
20174;DHT22;10246;50.620;7.232;2022-07-29T01:39:52;19.00;1.00
20174;DHT22;10246;50.620;7.232;2022-07-29T01:42:25;18.90;1.00
20174;DHT22;10246;50.620;7.232;2022-07-29T01:44:57;18.70;1.00
20174;DHT22;10246;50.620;7.232;2022-07-29T01:47:29;18.50;1.00
20174;DHT22;10246;50.620;7.232;2022-07-29T01:49:59;18.50;1.00
20174;DHT22;10246;50.620;7.232;2022-07-29T01:52:32;18.50;1.00
20174;DHT22;10246;50.620;7.232;2022-07-29T01:55:04;18.60;1.00
20174;DHT22;10246;50.620;7.232;2022-07-29T01:57:33;18.60;1.00
20174;DHT22;10246;50.620;7.232;2022-07-29T02:00:05;18.60;1.00
20174;DHT22;10246;50.620;7.232;2022-07-29T02:02:33;18.70;1.00
20174;DHT22;10246;50.620;7.232;2022-07-29T02:05:02;18.80;1.00
20174;DHT22;10246;50.620;7.232;2022-07-29T02:07:31;18.70;1.00
20174;DHT22;10246;50.620;7.232;2022-07-29T02:10:01;18.70;1.00
20174;DHT22;10246;50.620;7.232;2022-07-29T02:12:29;18.60;1.00
20174;DHT22;10246;50.620;7.232;2022-07-29T02:15:00;18.60;1.00
20174;DHT22;10246;50.620;7.232;2022-07-29T02:17:33;18.50;1.00
20174;DHT22;10246;50.620;7.232;2022-07-29T02:20:03;18.20;1.00
20174;DHT22;10246;50.620;7.232;2022-07-29T02:22:31;18.00;1.00
20174;DHT22;10246;50.620;7.232;2022-07-29T02:25:00;17.80;1.00
20174;DHT22;10246;50.620;7.232;2022-07-29T02:27:28;17.90;1.00
20174;DHT22;10246;50.620;7.232;2022-07-29T02:29:57;18.00;1.00
20174;DHT22;10246;50.620;7.232;2022-07-29T02:32:26;18.00;1.00
20174;DHT22;10246;50.620;7.232;2022-07-29T02:34:55;18.00;1.00
20174;DHT22;10246;50.620;7.232;2022-07-29T02:37:23;18.00;1.00
20174;DHT22;10246;50.620;7.232;2022-07-29T02:39:52;18.10;1.00
20174;DHT22;10246;50.620;7.232;2022-07-29T02:42:21;18.10;1.00
20174;DHT22;10246;50.620;7.232;2022-07-29T02:44:49;18.00;1.00
20174;DHT22;10246;50.620;7.232;2022-07-29T02:47:21;17.80;1.00
20174;DHT22;10246;50.620;7.232;2022-07-29T02:49:53;17.60;1.00
20174;DHT22;10246;50.620;7.232;2022-07-29T02:52:26;17.50;1.00
20174;DHT22;10246;50.620;7.232;2022-07-29T02:54:55;17.50;1.00
20174;DHT22;10246;50.620;7.232;2022-07-29T02:57:30;17.50;1.00
20174;DHT22;10246;50.620;7.232;2022-07-29T03:00:02;17.50;1.00
20174;DHT22;10246;50.620;7.232;2022-07-29T03:02:33;17.50;1.00
20174;DHT22;10246;50.620;7.232;2022-07-29T03:05:02;17.60;1.00
20174;DHT22;10246;50.620;7.232;2022-07-29T03:07:31;17.80;1.00
20174;DHT22;10246;50.620;7.232;2022-07-29T03:09:58;17.80;1.00
20174;DHT22;10246;50.620;7.232;2022-07-29T03:12:25;17.70;1.00
20174;DHT22;10246;50.620;7.232;2022-07-29T03:14:53;17.60;1.00
20174;DHT22;10246;50.620;7.232;2022-07-29T03:17:21;17.60;1.00
20174;DHT22;10246;50.620;7.232;2022-07-29T03:19:48;17.50;1.00
20174;DHT22;10246;50.620;7.232;2022-07-29T03:22:15;17.30;1.00
20174;DHT22;10246;50.620;7.232;2022-07-29T03:24:43;17.10;1.00
20174;DHT22;10246;50.620;7.232;2022-07-29T03:27:10;17.10;1.00
20174;DHT22;10246;50.620;7.232;2022-07-29T03:29:37;17.10;1.00
20174;DHT22;10246;50.620;7.232;2022-07-29T03:32:05;17.10;1.00
20174;DHT22;10246;50.620;7.232;2022-07-29T03:34:32;17.00;1.00
20174;DHT22;10246;50.620;7.232;2022-07-29T03:36:59;17.00;1.00
20174;DHT22;10246;50.620;7.232;2022-07-29T03:39:27;16.90;1.00
20174;DHT22;10246;50.620;7.232;2022-07-29T03:41:58;17.00;1.00
20174;DHT22;10246;50.620;7.232;2022-07-29T03:44:27;17.00;1.00
20174;DHT22;10246;50.620;7.232;2022-07-29T03:46:56;17.00;1.00
20174;DHT22;10246;50.620;7.232;2022-07-29T03:49:24;17.10;1.00
20174;DHT22;10246;50.620;7.232;2022-07-29T03:51:52;17.10;1.00
20174;DHT22;10246;50.620;7.232;2022-07-29T03:54:19;17.20;1.00
20174;DHT22;10246;50.620;7.232;2022-07-29T03:56:48;17.20;1.00
20174;DHT22;10246;50.620;7.232;2022-07-29T03:59:20;17.30;1.00
20174;DHT22;10246;50.620;7.232;2022-07-29T04:01:48;17.30;1.00
20174;DHT22;10246;50.620;7.232;2022-07-29T04:04:15;17.30;1.00
20174;DHT22;10246;50.620;7.232;2022-07-29T04:06:43;17.30;1.00
20174;DHT22;10246;50.620;7.232;2022-07-29T04:09:10;17.30;1.00
20174;DHT22;10246;50.620;7.232;2022-07-29T04:11:39;17.10;1.00
20174;DHT22;10246;50.620;7.232;2022-07-29T04:14:06;16.90;1.00
20174;DHT22;10246;50.620;7.232;2022-07-29T04:16:34;16.70;1.00
20174;DHT22;10246;50.620;7.232;2022-07-29T04:19:01;16.80;1.00
20174;DHT22;10246;50.620;7.232;2022-07-29T04:21:28;16.90;1.00
20174;DHT22;10246;50.620;7.232;2022-07-29T04:23:55;16.90;1.00
20174;DHT22;10246;50.620;7.232;2022-07-29T04:26:21;17.00;1.00
20174;DHT22;10246;50.620;7.232;2022-07-29T04:28:48;17.10;1.00
20174;DHT22;10246;50.620;7.232;2022-07-29T04:31:15;17.00;1.00
20174;DHT22;10246;50.620;7.232;2022-07-29T04:33:43;17.00;1.00
20174;DHT22;10246;50.620;7.232;2022-07-29T04:36:09;17.00;1.00
20174;DHT22;10246;50.620;7.232;2022-07-29T04:38:37;17.10;1.00
20174;DHT22;10246;50.620;7.232;2022-07-29T04:41:05;17.20;1.00
20174;DHT22;10246;50.620;7.232;2022-07-29T04:43:32;17.20;1.00
20174;DHT22;10246;50.620;7.232;2022-07-29T04:45:59;17.10;1.00
20174;DHT22;10246;50.620;7.232;2022-07-29T04:48:25;16.90;1.00
20174;DHT22;10246;50.620;7.232;2022-07-29T04:50:53;16.90;1.00
20174;DHT22;10246;50.620;7.232;2022-07-29T04:53:20;17.00;1.00
20174;DHT22;10246;50.620;7.232;2022-07-29T04:55:47;17.10;1.00
20174;DHT22;10246;50.620;7.232;2022-07-29T04:58:14;17.10;1.00
20174;DHT22;10246;50.620;7.232;2022-07-29T05:00:41;17.00;1.00
20174;DHT22;10246;50.620;7.232;2022-07-29T05:03:08;17.00;1.00
20174;DHT22;10246;50.620;7.232;2022-07-29T05:05:35;16.90;1.00
20174;DHT22;10246;50.620;7.232;2022-07-29T05:08:03;17.00;1.00
20174;DHT22;10246;50.620;7.232;2022-07-29T05:10:30;17.20;1.00
20174;DHT22;10246;50.620;7.232;2022-07-29T05:12:57;17.30;1.00
20174;DHT22;10246;50.620;7.232;2022-07-29T05:15:23;17.40;1.00
20174;DHT22;10246;50.620;7.232;2022-07-29T05:17:52;17.50;1.00
20174;DHT22;10246;50.620;7.232;2022-07-29T05:20:19;17.50;1.00
20174;DHT22;10246;50.620;7.232;2022-07-29T05:22:51;17.50;1.00
20174;DHT22;10246;50.620;7.232;2022-07-29T05:25:19;17.40;1.00
20174;DHT22;10246;50.620;7.232;2022-07-29T05:27:46;17.50;1.00
20174;DHT22;10246;50.620;7.232;2022-07-29T05:30:13;17.50;1.00
20174;DHT22;10246;50.620;7.232;2022-07-29T05:32:40;17.50;1.00
20174;DHT22;10246;50.620;7.232;2022-07-29T05:35:07;17.60;1.00
20174;DHT22;10246;50.620;7.232;2022-07-29T05:37:34;17.70;1.00
20174;DHT22;10246;50.620;7.232;2022-07-29T05:40:01;17.80;1.00
20174;DHT22;10246;50.620;7.232;2022-07-29T05:42:29;17.80;1.00
20174;DHT22;10246;50.620;7.232;2022-07-29T05:44:56;17.90;1.00
20174;DHT22;10246;50.620;7.232;2022-07-29T05:47:23;18.00;1.00
20174;DHT22;10246;50.620;7.232;2022-07-29T05:49:50;18.00;1.00
20174;DHT22;10246;50.620;7.232;2022-07-29T05:52:17;18.00;1.00
20174;DHT22;10246;50.620;7.232;2022-07-29T05:54:44;18.10;1.00
20174;DHT22;10246;50.620;7.232;2022-07-29T05:57:15;18.20;1.00
20174;DHT22;10246;50.620;7.232;2022-07-29T05:59:44;18.30;1.00
20174;DHT22;10246;50.620;7.232;2022-07-29T06:02:11;18.30;1.00
20174;DHT22;10246;50.620;7.232;2022-07-29T06:04:38;18.40;1.00
20174;DHT22;10246;50.620;7.232;2022-07-29T06:07:05;18.50;1.00
20174;DHT22;10246;50.620;7.232;2022-07-29T06:09:32;18.60;1.00
20174;DHT22;10246;50.620;7.232;2022-07-29T06:11:59;18.70;1.00
20174;DHT22;10246;50.620;7.232;2022-07-29T06:14:26;18.90;1.00
20174;DHT22;10246;50.620;7.232;2022-07-29T06:16:55;19.10;1.00
20174;DHT22;10246;50.620;7.232;2022-07-29T06:19:21;19.40;1.00
20174;DHT22;10246;50.620;7.232;2022-07-29T06:21:48;19.40;1.00
20174;DHT22;10246;50.620;7.232;2022-07-29T06:24:15;19.60;1.00
20174;DHT22;10246;50.620;7.232;2022-07-29T06:26:42;19.70;1.00
20174;DHT22;10246;50.620;7.232;2022-07-29T06:29:09;19.60;1.00
20174;DHT22;10246;50.620;7.232;2022-07-29T06:31:37;19.60;1.00
20174;DHT22;10246;50.620;7.232;2022-07-29T06:34:05;19.70;1.00
20174;DHT22;10246;50.620;7.232;2022-07-29T06:36:35;19.70;1.00
20174;DHT22;10246;50.620;7.232;2022-07-29T06:39:04;19.90;1.00
20174;DHT22;10246;50.620;7.232;2022-07-29T06:41:31;19.90;1.00
20174;DHT22;10246;50.620;7.232;2022-07-29T06:43:57;20.00;1.00
20174;DHT22;10246;50.620;7.232;2022-07-29T06:46:24;20.00;1.00
20174;DHT22;10246;50.620;7.232;2022-07-29T06:48:51;20.20;1.00
20174;DHT22;10246;50.620;7.232;2022-07-29T06:51:20;20.30;1.00
20174;DHT22;10246;50.620;7.232;2022-07-29T06:53:47;20.30;1.00
20174;DHT22;10246;50.620;7.232;2022-07-29T06:56:13;20.40;1.00
20174;DHT22;10246;50.620;7.232;2022-07-29T06:58:40;20.30;1.00
20174;DHT22;10246;50.620;7.232;2022-07-29T07:01:07;20.40;1.00
20174;DHT22;10246;50.620;7.232;2022-07-29T07:03:44;20.50;1.00
20174;DHT22;10246;50.620;7.232;2022-07-29T07:06:27;20.70;1.00
20174;DHT22;10246;50.620;7.232;2022-07-29T07:08:54;20.70;1.00
20174;DHT22;10246;50.620;7.232;2022-07-29T07:11:21;20.60;1.00
20174;DHT22;10246;50.620;7.232;2022-07-29T07:13:48;20.50;1.00
20174;DHT22;10246;50.620;7.232;2022-07-29T07:16:15;20.60;1.00
20174;DHT22;10246;50.620;7.232;2022-07-29T07:18:42;20.50;1.00
20174;DHT22;10246;50.620;7.232;2022-07-29T07:21:10;20.60;1.00
20174;DHT22;10246;50.620;7.232;2022-07-29T07:23:38;20.80;1.00
20174;DHT22;10246;50.620;7.232;2022-07-29T07:26:05;20.70;1.00
20174;DHT22;10246;50.620;7.232;2022-07-29T07:28:32;20.50;1.00
20174;DHT22;10246;50.620;7.232;2022-07-29T07:30:58;20.50;1.00
20174;DHT22;10246;50.620;7.232;2022-07-29T07:33:25;20.50;1.00
20174;DHT22;10246;50.620;7.232;2022-07-29T07:35:52;20.50;1.00
20174;DHT22;10246;50.620;7.232;2022-07-29T07:38:19;20.70;1.00
20174;DHT22;10246;50.620;7.232;2022-07-29T07:40:47;20.70;1.00
20174;DHT22;10246;50.620;7.232;2022-07-29T07:43:14;20.80;1.00
20174;DHT22;10246;50.620;7.232;2022-07-29T07:45:41;21.00;1.00
20174;DHT22;10246;50.620;7.232;2022-07-29T07:48:07;21.20;1.00
20174;DHT22;10246;50.620;7.232;2022-07-29T07:50:35;21.40;1.00
20174;DHT22;10246;50.620;7.232;2022-07-29T07:53:02;21.60;1.00
20174;DHT22;10246;50.620;7.232;2022-07-29T07:55:29;21.90;1.00
20174;DHT22;10246;50.620;7.232;2022-07-29T07:57:57;21.90;1.00
20174;DHT22;10246;50.620;7.232;2022-07-29T08:00:24;21.90;1.00
20174;DHT22;10246;50.620;7.232;2022-07-29T08:02:51;22.10;1.00
20174;DHT22;10246;50.620;7.232;2022-07-29T08:05:18;22.30;1.00
20174;DHT22;10246;50.620;7.232;2022-07-29T08:07:46;22.20;1.00
20174;DHT22;10246;50.620;7.232;2022-07-29T08:10:13;22.10;1.00
20174;DHT22;10246;50.620;7.232;2022-07-29T08:12:40;22.10;1.00
20174;DHT22;10246;50.620;7.232;2022-07-29T08:15:09;22.10;1.00
20174;DHT22;10246;50.620;7.232;2022-07-29T08:17:36;22.30;1.00
20174;DHT22;10246;50.620;7.232;2022-07-29T08:20:03;22.40;1.00
20174;DHT22;10246;50.620;7.232;2022-07-29T08:22:30;22.70;1.00
20174;DHT22;10246;50.620;7.232;2022-07-29T08:24:57;23.00;1.00
20174;DHT22;10246;50.620;7.232;2022-07-29T08:27:23;23.00;1.00
20174;DHT22;10246;50.620;7.232;2022-07-29T08:29:51;23.00;1.00
20174;DHT22;10246;50.620;7.232;2022-07-29T08:32:19;23.30;1.00
20174;DHT22;10246;50.620;7.232;2022-07-29T08:34:46;23.50;1.00
20174;DHT22;10246;50.620;7.232;2022-07-29T08:37:13;23.70;1.00
20174;DHT22;10246;50.620;7.232;2022-07-29T08:39:40;23.90;1.00
20174;DHT22;10246;50.620;7.232;2022-07-29T08:42:07;24.00;1.00
20174;DHT22;10246;50.620;7.232;2022-07-29T08:44:35;24.00;1.00
20174;DHT22;10246;50.620;7.232;2022-07-29T08:47:02;24.00;1.00
20174;DHT22;10246;50.620;7.232;2022-07-29T08:49:33;24.20;1.00
20174;DHT22;10246;50.620;7.232;2022-07-29T08:52:00;24.40;1.00
20174;DHT22;10246;50.620;7.232;2022-07-29T08:54:27;24.70;1.00
20174;DHT22;10246;50.620;7.232;2022-07-29T08:56:54;24.80;1.00
20174;DHT22;10246;50.620;7.232;2022-07-29T08:59:23;24.40;1.00
20174;DHT22;10246;50.620;7.232;2022-07-29T09:01:53;24.50;1.00
20174;DHT22;10246;50.620;7.232;2022-07-29T09:04:21;24.60;1.00
20174;DHT22;10246;50.620;7.232;2022-07-29T09:06:51;24.90;1.00
20174;DHT22;10246;50.620;7.232;2022-07-29T09:09:20;25.10;1.00
20174;DHT22;10246;50.620;7.232;2022-07-29T09:11:47;25.20;1.00
20174;DHT22;10246;50.620;7.232;2022-07-29T09:14:14;25.20;1.00
20174;DHT22;10246;50.620;7.232;2022-07-29T09:16:51;25.20;1.00
20174;DHT22;10246;50.620;7.232;2022-07-29T09:19:23;25.00;1.00
20174;DHT22;10246;50.620;7.232;2022-07-29T09:21:52;25.00;1.00
20174;DHT22;10246;50.620;7.232;2022-07-29T09:24:26;25.10;1.00
20174;DHT22;10246;50.620;7.232;2022-07-29T09:26:55;25.30;1.00
20174;DHT22;10246;50.620;7.232;2022-07-29T09:29:23;25.40;1.00
20174;DHT22;10246;50.620;7.232;2022-07-29T09:31:52;25.40;1.00
20174;DHT22;10246;50.620;7.232;2022-07-29T09:34:22;25.50;1.00
20174;DHT22;10246;50.620;7.232;2022-07-29T09:36:52;25.70;1.00
20174;DHT22;10246;50.620;7.232;2022-07-29T09:39:30;25.70;1.00
20174;DHT22;10246;50.620;7.232;2022-07-29T09:41:58;25.90;1.00
20174;DHT22;10246;50.620;7.232;2022-07-29T09:44:26;25.70;1.00
20174;DHT22;10246;50.620;7.232;2022-07-29T09:46:57;25.80;1.00
20174;DHT22;10246;50.620;7.232;2022-07-29T09:49:24;26.10;1.00
20174;DHT22;10246;50.620;7.232;2022-07-29T09:52:04;26.30;1.00
20174;DHT22;10246;50.620;7.232;2022-07-29T09:54:31;26.30;1.00
20174;DHT22;10246;50.620;7.232;2022-07-29T09:57:03;26.30;1.00
20174;DHT22;10246;50.620;7.232;2022-07-29T09:59:30;26.30;1.00
20174;DHT22;10246;50.620;7.232;2022-07-29T10:01:57;26.50;1.00
20174;DHT22;10246;50.620;7.232;2022-07-29T10:04:24;26.60;1.00
20174;DHT22;10246;50.620;7.232;2022-07-29T10:07:03;26.70;1.00
20174;DHT22;10246;50.620;7.232;2022-07-29T10:09:31;26.80;1.00
20174;DHT22;10246;50.620;7.232;2022-07-29T10:12:09;26.80;1.00
20174;DHT22;10246;50.620;7.232;2022-07-29T10:14:37;26.70;1.00
20174;DHT22;10246;50.620;7.232;2022-07-29T10:17:06;26.50;1.00
20174;DHT22;10246;50.620;7.232;2022-07-29T10:19:34;26.40;1.00
20174;DHT22;10246;50.620;7.232;2022-07-29T10:22:06;26.70;1.00
20174;DHT22;10246;50.620;7.232;2022-07-29T10:24:33;26.90;1.00
20174;DHT22;10246;50.620;7.232;2022-07-29T10:27:02;27.20;1.00
20174;DHT22;10246;50.620;7.232;2022-07-29T10:29:29;27.40;1.00
20174;DHT22;10246;50.620;7.232;2022-07-29T10:32:18;27.60;1.00
20174;DHT22;10246;50.620;7.232;2022-07-29T10:35:15;27.80;1.00
20174;DHT22;10246;50.620;7.232;2022-07-29T10:37:59;28.00;1.00
20174;DHT22;10246;50.620;7.232;2022-07-29T10:40:36;28.20;1.00
20174;DHT22;10246;50.620;7.232;2022-07-29T10:43:28;27.80;1.00
20174;DHT22;10246;50.620;7.232;2022-07-29T10:45:56;27.80;1.00
20174;DHT22;10246;50.620;7.232;2022-07-29T10:48:24;27.80;1.00
20174;DHT22;10246;50.620;7.232;2022-07-29T10:50:56;28.10;1.00
20174;DHT22;10246;50.620;7.232;2022-07-29T10:53:47;28.00;1.00
20174;DHT22;10246;50.620;7.232;2022-07-29T10:56:24;27.80;1.00
20174;DHT22;10246;50.620;7.232;2022-07-29T10:59:24;27.60;1.00
20174;DHT22;10246;50.620;7.232;2022-07-29T11:01:52;27.70;1.00
20174;DHT22;10246;50.620;7.232;2022-07-29T11:07:20;27.80;1.00
20174;DHT22;10246;50.620;7.232;2022-07-29T11:12:49;27.70;1.00
20174;DHT22;10246;50.620;7.232;2022-07-29T11:15:18;28.00;1.00
20174;DHT22;10246;50.620;7.232;2022-07-29T11:18:04;28.20;1.00
20174;DHT22;10246;50.620;7.232;2022-07-29T11:20:42;28.80;1.00
20174;DHT22;10246;50.620;7.232;2022-07-29T11:23:24;29.10;1.00
20174;DHT22;10246;50.620;7.232;2022-07-29T11:26:13;28.80;1.00
20174;DHT22;10246;50.620;7.232;2022-07-29T11:28:50;28.30;1.00
20174;DHT22;10246;50.620;7.232;2022-07-29T11:31:20;28.50;1.00
20174;DHT22;10246;50.620;7.232;2022-07-29T11:34:16;28.60;1.00
20174;DHT22;10246;50.620;7.232;2022-07-29T11:40:10;28.10;1.00
20174;DHT22;10246;50.620;7.232;2022-07-29T11:42:39;28.10;1.00
20174;DHT22;10246;50.620;7.232;2022-07-29T11:45:09;28.30;1.00
20174;DHT22;10246;50.620;7.232;2022-07-29T11:47:37;28.30;1.00
20174;DHT22;10246;50.620;7.232;2022-07-29T11:50:07;28.40;1.00
20174;DHT22;10246;50.620;7.232;2022-07-29T11:52:36;28.60;1.00
20174;DHT22;10246;50.620;7.232;2022-07-29T11:55:09;28.80;1.00
20174;DHT22;10246;50.620;7.232;2022-07-29T11:57:37;28.70;1.00
20174;DHT22;10246;50.620;7.232;2022-07-29T12:00:07;28.60;1.00
20174;DHT22;10246;50.620;7.232;2022-07-29T12:02:39;28.40;1.00
20174;DHT22;10246;50.620;7.232;2022-07-29T12:05:08;28.50;1.00
20174;DHT22;10246;50.620;7.232;2022-07-29T12:07:35;28.60;1.00
20174;DHT22;10246;50.620;7.232;2022-07-29T12:10:02;28.50;1.00
20174;DHT22;10246;50.620;7.232;2022-07-29T12:12:29;28.60;1.00
20174;DHT22;10246;50.620;7.232;2022-07-29T12:14:56;28.50;1.00
20174;DHT22;10246;50.620;7.232;2022-07-29T12:17:30;28.50;1.00
20174;DHT22;10246;50.620;7.232;2022-07-29T12:19:58;28.10;1.00
20174;DHT22;10246;50.620;7.232;2022-07-29T12:22:25;27.90;1.00
20174;DHT22;10246;50.620;7.232;2022-07-29T12:24:53;27.90;1.00
20174;DHT22;10246;50.620;7.232;2022-07-29T12:27:20;28.20;1.00
20174;DHT22;10246;50.620;7.232;2022-07-29T12:29:55;28.40;1.00
20174;DHT22;10246;50.620;7.232;2022-07-29T12:32:23;28.40;1.00
20174;DHT22;10246;50.620;7.232;2022-07-29T12:34:51;28.20;1.00
20174;DHT22;10246;50.620;7.232;2022-07-29T12:37:18;27.80;1.00
20174;DHT22;10246;50.620;7.232;2022-07-29T12:39:45;27.80;1.00
20174;DHT22;10246;50.620;7.232;2022-07-29T12:42:12;27.70;1.00
20174;DHT22;10246;50.620;7.232;2022-07-29T12:44:46;27.70;1.00
20174;DHT22;10246;50.620;7.232;2022-07-29T12:47:14;28.00;1.00
20174;DHT22;10246;50.620;7.232;2022-07-29T12:49:41;28.20;1.00
20174;DHT22;10246;50.620;7.232;2022-07-29T12:52:26;27.80;1.00
20174;DHT22;10246;50.620;7.232;2022-07-29T12:54:53;27.70;1.00
20174;DHT22;10246;50.620;7.232;2022-07-29T12:57:20;27.80;1.00
20174;DHT22;10246;50.620;7.232;2022-07-29T13:00:05;27.90;1.00
20174;DHT22;10246;50.620;7.232;2022-07-29T13:02:36;28.00;1.00
20174;DHT22;10246;50.620;7.232;2022-07-29T13:05:04;28.10;1.00
20174;DHT22;10246;50.620;7.232;2022-07-29T13:07:34;28.10;1.00
20174;DHT22;10246;50.620;7.232;2022-07-29T13:10:13;28.00;1.00
20174;DHT22;10246;50.620;7.232;2022-07-29T13:13:06;28.10;1.00
20174;DHT22;10246;50.620;7.232;2022-07-29T13:15:35;28.20;1.00
20174;DHT22;10246;50.620;7.232;2022-07-29T13:18:03;28.30;1.00
20174;DHT22;10246;50.620;7.232;2022-07-29T13:20:30;28.50;1.00
20174;DHT22;10246;50.620;7.232;2022-07-29T13:22:59;28.50;1.00
20174;DHT22;10246;50.620;7.232;2022-07-29T13:25:28;28.30;1.00
20174;DHT22;10246;50.620;7.232;2022-07-29T13:27:55;28.40;1.00
20174;DHT22;10246;50.620;7.232;2022-07-29T13:30:23;28.60;1.00
20174;DHT22;10246;50.620;7.232;2022-07-29T13:32:50;28.50;1.00
20174;DHT22;10246;50.620;7.232;2022-07-29T13:35:19;28.70;1.00
20174;DHT22;10246;50.620;7.232;2022-07-29T13:37:46;28.50;1.00
20174;DHT22;10246;50.620;7.232;2022-07-29T13:40:14;28.40;1.00
20174;DHT22;10246;50.620;7.232;2022-07-29T13:42:41;28.30;1.00
20174;DHT22;10246;50.620;7.232;2022-07-29T13:45:09;28.10;1.00
20174;DHT22;10246;50.620;7.232;2022-07-29T13:47:37;27.70;1.00
20174;DHT22;10246;50.620;7.232;2022-07-29T13:50:05;27.70;1.00
20174;DHT22;10246;50.620;7.232;2022-07-29T13:52:33;28.00;1.00
20174;DHT22;10246;50.620;7.232;2022-07-29T13:55:00;28.00;1.00
20174;DHT22;10246;50.620;7.232;2022-07-29T13:57:29;28.00;1.00
20174;DHT22;10246;50.620;7.232;2022-07-29T13:59:56;27.80;1.00
20174;DHT22;10246;50.620;7.232;2022-07-29T14:02:23;27.90;1.00
20174;DHT22;10246;50.620;7.232;2022-07-29T14:04:50;27.80;1.00
20174;DHT22;10246;50.620;7.232;2022-07-29T14:07:17;27.80;1.00
20174;DHT22;10246;50.620;7.232;2022-07-29T14:09:43;27.90;1.00
20174;DHT22;10246;50.620;7.232;2022-07-29T14:12:11;28.20;1.00
20174;DHT22;10246;50.620;7.232;2022-07-29T14:14:39;28.20;1.00
20174;DHT22;10246;50.620;7.232;2022-07-29T14:17:07;28.30;1.00
20174;DHT22;10246;50.620;7.232;2022-07-29T14:19:34;28.10;1.00
20174;DHT22;10246;50.620;7.232;2022-07-29T14:22:03;27.90;1.00
20174;DHT22;10246;50.620;7.232;2022-07-29T14:24:30;27.90;1.00
20174;DHT22;10246;50.620;7.232;2022-07-29T14:26:57;28.10;1.00
20174;DHT22;10246;50.620;7.232;2022-07-29T14:29:24;28.00;1.00
20174;DHT22;10246;50.620;7.232;2022-07-29T14:31:52;28.00;1.00
20174;DHT22;10246;50.620;7.232;2022-07-29T14:34:19;28.10;1.00
20174;DHT22;10246;50.620;7.232;2022-07-29T14:36:45;28.10;1.00
20174;DHT22;10246;50.620;7.232;2022-07-29T14:39:12;28.10;1.00
20174;DHT22;10246;50.620;7.232;2022-07-29T14:41:41;28.10;1.00
20174;DHT22;10246;50.620;7.232;2022-07-29T14:44:07;28.20;1.00
20174;DHT22;10246;50.620;7.232;2022-07-29T14:46:34;28.30;1.00
20174;DHT22;10246;50.620;7.232;2022-07-29T14:49:03;28.30;1.00
20174;DHT22;10246;50.620;7.232;2022-07-29T14:51:29;28.20;1.00
20174;DHT22;10246;50.620;7.232;2022-07-29T14:53:56;28.10;1.00
20174;DHT22;10246;50.620;7.232;2022-07-29T14:56:23;28.20;1.00
20174;DHT22;10246;50.620;7.232;2022-07-29T14:58:50;28.10;1.00
20174;DHT22;10246;50.620;7.232;2022-07-29T15:01:16;28.00;1.00
20174;DHT22;10246;50.620;7.232;2022-07-29T15:03:43;28.10;1.00
20174;DHT22;10246;50.620;7.232;2022-07-29T15:06:11;28.00;1.00
20174;DHT22;10246;50.620;7.232;2022-07-29T15:08:38;28.20;1.00
20174;DHT22;10246;50.620;7.232;2022-07-29T15:11:05;28.50;1.00
20174;DHT22;10246;50.620;7.232;2022-07-29T15:13:32;28.80;1.00
20174;DHT22;10246;50.620;7.232;2022-07-29T15:15:59;29.10;1.00
20174;DHT22;10246;50.620;7.232;2022-07-29T15:18:26;29.30;1.00
20174;DHT22;10246;50.620;7.232;2022-07-29T15:20:52;29.60;1.00
20174;DHT22;10246;50.620;7.232;2022-07-29T15:23:20;29.40;1.00
20174;DHT22;10246;50.620;7.232;2022-07-29T15:25:47;29.30;1.00
20174;DHT22;10246;50.620;7.232;2022-07-29T15:28:14;29.40;1.00
20174;DHT22;10246;50.620;7.232;2022-07-29T15:30:41;29.20;1.00
20174;DHT22;10246;50.620;7.232;2022-07-29T15:33:08;28.80;1.00
20174;DHT22;10246;50.620;7.232;2022-07-29T15:35:35;28.80;1.00
20174;DHT22;10246;50.620;7.232;2022-07-29T15:38:02;28.80;1.00
20174;DHT22;10246;50.620;7.232;2022-07-29T15:40:30;29.00;1.00
20174;DHT22;10246;50.620;7.232;2022-07-29T15:42:57;29.20;1.00
20174;DHT22;10246;50.620;7.232;2022-07-29T15:45:35;29.10;1.00
20174;DHT22;10246;50.620;7.232;2022-07-29T15:48:02;28.70;1.00
20174;DHT22;10246;50.620;7.232;2022-07-29T15:50:28;28.60;1.00
20174;DHT22;10246;50.620;7.232;2022-07-29T15:52:55;28.40;1.00
20174;DHT22;10246;50.620;7.232;2022-07-29T15:55:22;28.40;1.00
20174;DHT22;10246;50.620;7.232;2022-07-29T15:57:50;28.50;1.00
20174;DHT22;10246;50.620;7.232;2022-07-29T16:00:17;28.50;1.00
20174;DHT22;10246;50.620;7.232;2022-07-29T16:02:44;28.40;1.00
20174;DHT22;10246;50.620;7.232;2022-07-29T16:05:11;28.30;1.00